createdAt,value
2019-01-28T00:00:11.342Z,74.50
2019-01-28T00:02:40.751Z,74.70
2019-01-28T00:05:09.329Z,73.40
2019-01-28T00:07:39.286Z,71.90
2019-01-28T00:10:08.659Z,72.60
2019-01-28T00:12:37.143Z,73.60
2019-01-28T00:15:07.434Z,74.10
2019-01-28T00:17:36.865Z,75.00
2019-01-28T00:20:07.018Z,74.90
2019-01-28T00:22:35.434Z,74.70
2019-01-28T00:25:04.454Z,74.90
2019-01-28T00:27:32.881Z,75.00
2019-01-28T00:30:01.324Z,75.20
2019-01-28T00:32:29.750Z,75.30
2019-01-28T00:34:58.200Z,75.20
2019-01-28T00:37:26.628Z,74.00
2019-01-28T00:39:55.063Z,74.10
2019-01-28T00:42:25.020Z,74.60
2019-01-28T00:44:55.108Z,75.30
2019-01-28T00:47:23.515Z,75.90
2019-01-28T00:49:51.950Z,75.30
2019-01-28T00:52:20.370Z,75.80
2019-01-28T00:54:48.847Z,76.60
2019-01-28T00:57:18.922Z,77.40
2019-01-28T00:59:47.351Z,78.00
2019-01-28T01:02:15.863Z,78.70
2019-01-28T01:04:44.299Z,77.80
2019-01-28T01:07:12.803Z,75.80
2019-01-28T01:09:41.218Z,76.00
2019-01-28T01:12:09.651Z,75.50
2019-01-28T01:14:39.656Z,74.90
2019-01-28T01:17:08.275Z,74.70
2019-01-28T01:19:36.700Z,74.00
2019-01-28T01:22:05.314Z,74.30
2019-01-28T01:24:33.741Z,74.10
2019-01-28T01:27:02.183Z,73.40
2019-01-28T01:29:30.599Z,73.10
2019-01-28T01:31:59.045Z,72.80
2019-01-28T01:34:27.462Z,72.20
2019-01-28T01:36:55.907Z,70.20
2019-01-28T01:39:24.327Z,70.30
2019-01-28T01:41:52.766Z,70.00
2019-01-28T01:44:21.178Z,69.70
2019-01-28T01:46:49.623Z,69.70
2019-01-28T01:49:18.027Z,69.40
2019-01-28T01:51:46.511Z,69.70
2019-01-28T01:54:16.492Z,70.30
2019-01-28T01:56:44.918Z,70.50
2019-01-28T01:59:13.502Z,70.10
2019-01-28T02:01:41.914Z,69.40
2019-01-28T02:04:10.688Z,69.30
2019-01-28T02:06:39.187Z,69.00
2019-01-28T02:09:08.674Z,68.90
2019-01-28T02:11:37.302Z,68.70
2019-01-28T02:14:05.885Z,68.00
2019-01-28T02:16:36.024Z,67.80
2019-01-28T02:19:04.566Z,68.10
2019-01-28T02:21:32.991Z,67.80
2019-01-28T02:24:01.433Z,68.10
2019-01-28T02:26:29.842Z,67.60
2019-01-28T02:28:58.352Z,67.70
2019-01-28T02:31:26.787Z,68.10
2019-01-28T02:33:56.753Z,67.90
2019-01-28T02:36:25.175Z,67.40
2019-01-28T02:38:53.638Z,66.10
2019-01-28T02:41:22.043Z,66.60
2019-01-28T02:43:50.514Z,66.10
2019-01-28T02:46:18.926Z,66.40
2019-01-28T02:48:47.434Z,66.10
2019-01-28T02:51:15.861Z,65.40
2019-01-28T02:53:44.343Z,65.40
2019-01-28T02:56:12.791Z,65.70
2019-01-28T02:58:41.206Z,65.90
2019-01-28T03:01:09.654Z,65.50
2019-01-28T03:03:38.094Z,65.40
2019-01-28T03:06:06.770Z,65.00
2019-01-28T03:08:35.198Z,65.10
2019-01-28T03:11:03.722Z,65.20
2019-01-28T03:13:32.179Z,64.80
2019-01-28T03:16:02.228Z,64.90
2019-01-28T03:18:30.650Z,64.20
2019-01-28T03:20:59.103Z,64.60
2019-01-28T03:23:29.173Z,64.20
2019-01-28T03:25:57.591Z,64.30
2019-01-28T03:28:26.035Z,64.60
2019-01-28T03:30:54.501Z,65.50
2019-01-28T03:33:22.928Z,66.10
2019-01-28T03:35:53.091Z,66.00
2019-01-28T03:38:21.516Z,66.60
2019-01-28T03:40:49.931Z,66.50
2019-01-28T03:43:18.369Z,66.60
2019-01-28T03:45:46.797Z,66.80
2019-01-28T03:48:15.252Z,66.20
2019-01-28T03:50:43.692Z,66.00
2019-01-28T03:53:13.381Z,65.40
2019-01-28T03:55:41.802Z,65.80
2019-01-28T03:58:10.316Z,66.70
2019-01-28T04:00:38.807Z,66.50
2019-01-28T04:03:07.278Z,65.30
2019-01-28T04:05:35.682Z,63.50
2019-01-28T04:08:04.200Z,63.30
2019-01-28T04:10:32.629Z,63.70
2019-01-28T04:13:01.076Z,63.90
2019-01-28T04:15:29.698Z,63.80
2019-01-28T04:17:58.194Z,64.20
2019-01-28T04:20:26.880Z,63.60
2019-01-28T04:22:55.446Z,63.60
2019-01-28T04:25:24.067Z,63.80
2019-01-28T04:27:52.546Z,63.10
2019-01-28T04:30:26.080Z,62.90
2019-01-28T04:32:54.682Z,63.10
2019-01-28T04:35:23.177Z,63.60
2019-01-28T04:37:51.686Z,63.50
2019-01-28T04:40:20.187Z,62.70
2019-01-28T04:42:48.686Z,61.70
2019-01-28T04:45:19.664Z,61.60
2019-01-28T04:47:48.935Z,61.70
2019-01-28T04:50:22.100Z,61.60
2019-01-28T04:52:50.525Z,61.90
2019-01-28T04:55:19.615Z,62.40
2019-01-28T04:57:48.107Z,62.40
2019-01-28T05:00:19.155Z,62.50
2019-01-28T05:02:47.750Z,62.30
2019-01-28T05:05:16.335Z,62.70
2019-01-28T05:07:44.894Z,62.90
2019-01-28T05:10:18.727Z,62.80
2019-01-28T05:12:47.299Z,63.30
2019-01-28T05:15:18.558Z,63.90
2019-01-28T05:17:47.154Z,64.70
2019-01-28T05:20:17.827Z,65.00
2019-01-28T05:22:46.379Z,65.40
2019-01-28T05:25:16.438Z,64.70
2019-01-28T05:27:44.941Z,64.70
2019-01-28T05:30:16.392Z,64.60
2019-01-28T05:32:45.002Z,64.60
2019-01-28T05:35:16.073Z,64.90
2019-01-28T05:37:44.498Z,65.20
2019-01-28T05:40:16.006Z,65.30
2019-01-28T05:42:44.448Z,65.60
2019-01-28T05:45:15.420Z,65.90
2019-01-28T05:47:43.996Z,66.50
2019-01-28T05:50:14.159Z,66.80
2019-01-28T05:52:42.679Z,67.00
2019-01-28T05:55:13.906Z,67.70
2019-01-28T05:57:42.487Z,67.80
2019-01-28T06:00:19.981Z,67.60
2019-01-28T06:02:48.426Z,67.50
2019-01-28T06:05:16.980Z,65.90
2019-01-28T06:07:45.564Z,65.90
2019-01-28T06:10:15.623Z,65.60
2019-01-28T06:12:44.139Z,64.60
2019-01-28T06:15:15.556Z,64.00
2019-01-28T06:17:43.983Z,63.70
2019-01-28T06:20:15.814Z,63.90
2019-01-28T06:22:44.319Z,64.20
2019-01-28T06:25:13.182Z,64.10
2019-01-28T06:27:41.723Z,64.10
2019-01-28T06:30:15.894Z,64.10
2019-01-28T06:32:44.327Z,64.20
2019-01-28T06:35:12.987Z,64.40
2019-01-28T06:37:43.070Z,64.20
2019-01-28T06:40:21.092Z,64.90
2019-01-28T06:42:49.574Z,64.80
2019-01-28T06:45:18.154Z,65.20
2019-01-28T06:47:47.212Z,64.70
2019-01-28T06:50:18.970Z,64.40
2019-01-28T06:52:47.726Z,64.10
2019-01-28T06:55:16.603Z,63.10
2019-01-28T06:57:45.257Z,63.50
2019-01-28T07:00:25.376Z,63.90
2019-01-28T07:02:53.852Z,63.30
2019-01-28T07:05:22.286Z,63.60
2019-01-28T07:07:50.883Z,64.30
2019-01-28T07:10:19.404Z,64.40
2019-01-28T07:12:47.992Z,64.20
2019-01-28T07:15:21.134Z,63.70
2019-01-28T07:17:54.698Z,63.80
2019-01-28T07:20:26.088Z,62.90
2019-01-28T07:22:56.349Z,63.60
2019-01-28T07:25:24.795Z,63.40
2019-01-28T07:27:53.347Z,63.10
2019-01-28T07:30:25.136Z,62.90
2019-01-28T07:32:53.619Z,62.70
2019-01-28T07:35:22.127Z,62.60
2019-01-28T07:37:50.634Z,62.30
2019-01-28T07:40:19.196Z,61.70
2019-01-28T07:42:47.775Z,61.70
2019-01-28T07:45:22.217Z,61.60
2019-01-28T07:47:52.187Z,61.70
2019-01-28T07:50:20.848Z,61.80
2019-01-28T07:52:49.439Z,62.00
2019-01-28T07:55:17.943Z,61.70
2019-01-28T07:57:46.375Z,61.80
2019-01-28T08:00:19.433Z,61.50
2019-01-28T08:02:49.564Z,61.20
2019-01-28T08:05:19.110Z,61.20
2019-01-28T08:07:47.614Z,61.10
2019-01-28T08:10:17.985Z,61.00
2019-01-28T08:12:46.755Z,61.00
2019-01-28T08:15:17.606Z,60.80
2019-01-28T08:17:46.393Z,61.00
2019-01-28T08:20:16.745Z,60.80
2019-01-28T08:22:45.629Z,61.10
2019-01-28T08:25:16.878Z,61.10
2019-01-28T08:27:45.393Z,61.30
2019-01-28T08:30:28.410Z,61.20
2019-01-28T08:32:57.012Z,61.20
2019-01-28T08:35:26.871Z,60.70
2019-01-28T08:37:55.283Z,60.30
2019-01-28T08:40:24.066Z,60.50
2019-01-28T08:42:52.590Z,60.50
2019-01-28T08:45:21.081Z,60.40
2019-01-28T08:47:50.198Z,60.10
2019-01-28T08:50:29.385Z,60.10
2019-01-28T08:52:57.819Z,60.30
2019-01-28T08:55:30.479Z,59.40
2019-01-28T08:57:59.010Z,57.90
2019-01-28T09:00:40.514Z,58.30
2019-01-28T09:03:09.083Z,58.40
2019-01-28T09:05:38.959Z,58.60
2019-01-28T09:08:08.548Z,58.30
2019-01-28T09:10:37.226Z,57.60
2019-01-28T09:13:06.015Z,57.10
2019-01-28T09:15:34.604Z,57.70
2019-01-28T09:18:03.166Z,56.70
2019-01-28T09:20:36.355Z,56.30
2019-01-28T09:23:06.978Z,56.90
2019-01-28T09:25:35.382Z,55.70
2019-01-28T09:28:04.193Z,56.70
2019-01-28T09:30:34.280Z,57.70
2019-01-28T09:33:02.779Z,57.70
2019-01-28T09:35:31.227Z,57.40
2019-01-28T09:38:00.120Z,56.70
2019-01-28T09:40:31.386Z,55.30
2019-01-28T09:42:59.965Z,56.60
2019-01-28T09:45:31.311Z,56.70
2019-01-28T09:47:59.906Z,56.30
2019-01-28T09:50:28.600Z,55.20
2019-01-28T09:52:57.656Z,55.00
2019-01-28T09:55:26.432Z,54.50
2019-01-28T09:57:55.004Z,55.70
2019-01-28T10:00:35.646Z,55.00
2019-01-28T10:03:05.536Z,55.40
2019-01-28T10:05:34.023Z,54.60
2019-01-28T10:08:02.466Z,54.90
2019-01-28T10:10:31.321Z,54.70
2019-01-28T10:12:59.856Z,53.90
2019-01-28T10:15:29.096Z,54.10
2019-01-28T10:17:57.851Z,54.40
2019-01-28T10:20:31.927Z,53.80
2019-01-28T10:23:00.747Z,53.90
2019-01-28T10:25:29.307Z,53.90
2019-01-28T10:27:57.887Z,54.30
2019-01-28T10:30:35.160Z,53.70
2019-01-28T10:33:04.938Z,53.10
2019-01-28T10:35:33.899Z,53.10
2019-01-28T10:38:02.482Z,52.70
2019-01-28T10:40:33.444Z,52.70
2019-01-28T10:43:03.673Z,52.80
2019-01-28T10:45:32.086Z,53.70
2019-01-28T10:48:01.074Z,53.30
2019-01-28T10:50:30.182Z,52.80
2019-01-28T10:52:58.793Z,53.90
2019-01-28T10:55:28.462Z,52.80
2019-01-28T10:57:57.647Z,53.90
2019-01-28T11:00:34.607Z,53.30
2019-01-28T11:03:03.790Z,53.60
2019-01-28T11:05:33.344Z,52.90
2019-01-28T11:08:01.900Z,53.90
2019-01-28T11:10:30.333Z,53.70
2019-01-28T11:12:59.714Z,53.60
2019-01-28T11:15:29.865Z,53.60
2019-01-28T11:18:00.899Z,52.40
2019-01-28T11:20:29.536Z,52.90
2019-01-28T11:22:58.692Z,52.60
2019-01-28T11:25:29.856Z,52.40
2019-01-28T11:27:58.455Z,52.60
2019-01-28T11:30:36.994Z,52.60
2019-01-28T11:33:05.681Z,52.80
2019-01-28T11:35:35.731Z,53.00
2019-01-28T11:38:05.285Z,53.90
2019-01-28T11:40:33.970Z,53.30
2019-01-28T11:43:02.594Z,52.70
2019-01-28T11:45:49.289Z,53.00
2019-01-28T11:48:18.035Z,53.60
2019-01-28T11:50:46.768Z,53.70
2019-01-28T11:53:15.330Z,54.50
2019-01-28T11:55:43.845Z,54.70
2019-01-28T11:58:12.263Z,54.00
2019-01-28T12:00:51.163Z,54.10
2019-01-28T12:03:19.653Z,53.80
2019-01-28T12:05:49.630Z,53.40
2019-01-28T12:08:18.123Z,52.90
2019-01-28T12:10:46.759Z,52.80
2019-01-28T12:13:15.191Z,53.30
2019-01-28T12:15:43.773Z,52.50
2019-01-28T12:18:12.412Z,53.40
2019-01-28T12:20:40.919Z,53.00
2019-01-28T12:23:09.339Z,53.10
2019-01-28T12:25:37.827Z,52.50
2019-01-28T12:28:06.394Z,52.90
2019-01-28T12:30:36.630Z,52.80
2019-01-28T12:33:05.409Z,52.70
2019-01-28T12:35:33.994Z,52.40
2019-01-28T12:38:02.436Z,52.10
2019-01-28T12:40:31.148Z,52.60
2019-01-28T12:42:59.607Z,52.70
2019-01-28T12:45:30.940Z,52.70
2019-01-28T12:47:59.388Z,53.00
2019-01-28T12:50:28.351Z,52.80
2019-01-28T12:52:56.795Z,52.90
2019-01-28T12:55:26.535Z,53.00
2019-01-28T12:57:54.994Z,52.60
2019-01-28T13:00:35.418Z,53.00
2019-01-28T13:03:04.898Z,52.80
2019-01-28T13:05:33.317Z,52.60
2019-01-28T13:08:01.828Z,53.20
2019-01-28T13:10:30.265Z,53.90
2019-01-28T13:12:58.734Z,52.80
2019-01-28T13:15:29.574Z,53.70
2019-01-28T13:17:59.035Z,53.50
2019-01-28T13:20:27.917Z,53.70
2019-01-28T13:22:56.397Z,54.20
2019-01-28T13:25:30.379Z,54.40
2019-01-28T13:27:58.870Z,55.50
2019-01-28T13:30:36.226Z,56.00
2019-01-28T13:33:07.265Z,55.30
2019-01-28T13:35:37.313Z,57.20
2019-01-28T13:38:05.867Z,56.30
2019-01-28T13:40:34.375Z,56.60
2019-01-28T13:43:02.861Z,58.10
2019-01-28T13:45:31.475Z,60.00
2019-01-28T13:48:00.247Z,60.60
2019-01-28T13:50:28.844Z,61.20
2019-01-28T13:52:57.404Z,61.80
2019-01-28T13:55:26.064Z,62.10
2019-01-28T13:57:54.573Z,61.60
2019-01-28T14:00:25.447Z,61.10
2019-01-28T14:02:54.206Z,61.30
2019-01-28T14:05:23.192Z,61.40
2019-01-28T14:07:51.956Z,61.20
2019-01-28T14:10:21.939Z,61.40
2019-01-28T14:12:50.722Z,62.50
2019-01-28T14:15:27.722Z,62.70
2019-01-28T14:17:56.311Z,63.10
2019-01-28T14:20:27.188Z,63.00
2019-01-28T14:22:55.835Z,63.50
2019-01-28T14:25:24.448Z,63.60
2019-01-28T14:27:52.931Z,63.50
2019-01-28T14:30:27.435Z,63.70
2019-01-28T14:32:55.893Z,64.30
2019-01-28T14:35:24.500Z,64.20
2019-01-28T14:37:52.945Z,63.90
2019-01-28T14:40:23.867Z,63.90
2019-01-28T14:42:52.444Z,64.90
2019-01-28T14:45:21.016Z,65.40
2019-01-28T14:47:49.672Z,65.70
2019-01-28T14:50:32.771Z,66.50
2019-01-28T14:53:01.496Z,66.10
2019-01-28T14:55:30.198Z,66.60
2019-01-28T14:57:58.780Z,66.60
2019-01-28T15:00:33.095Z,66.50
2019-01-28T15:03:01.620Z,66.80
2019-01-28T15:05:30.178Z,67.40
2019-01-28T15:08:00.221Z,68.10
2019-01-28T15:10:28.795Z,68.50
2019-01-28T15:12:57.504Z,68.10
2019-01-28T15:15:28.827Z,68.80
2019-01-28T15:17:57.710Z,69.30
2019-01-28T15:20:26.204Z,69.90
2019-01-28T15:22:54.723Z,69.70
2019-01-28T15:25:23.153Z,70.20
2019-01-28T15:27:51.609Z,70.90
2019-01-28T15:30:28.457Z,70.80
2019-01-28T15:32:57.707Z,71.60
2019-01-28T15:35:26.333Z,70.70
2019-01-28T15:37:54.768Z,70.80
2019-01-28T15:40:32.201Z,71.10
2019-01-28T15:43:00.774Z,71.90
2019-01-28T15:45:35.030Z,72.40
2019-01-28T15:48:04.101Z,72.60
2019-01-28T15:50:32.535Z,73.30
2019-01-28T15:53:00.967Z,73.30
2019-01-28T15:55:32.538Z,73.60
2019-01-28T15:58:01.134Z,74.50
2019-01-28T16:00:32.015Z,74.90
2019-01-28T16:03:00.958Z,74.40
2019-01-28T16:05:29.413Z,74.00
2019-01-28T16:07:57.845Z,74.00
2019-01-28T16:10:26.288Z,74.50
2019-01-28T16:12:54.840Z,75.20
2019-01-28T16:15:28.603Z,75.30
2019-01-28T16:17:57.061Z,76.00
2019-01-28T16:20:25.653Z,77.30
2019-01-28T16:22:54.507Z,78.90
2019-01-28T16:25:23.212Z,79.90
2019-01-28T16:27:51.699Z,80.40
2019-01-28T16:30:29.058Z,80.40
2019-01-28T16:32:57.618Z,80.80
2019-01-28T16:35:26.279Z,81.60
2019-01-28T16:37:55.384Z,81.60
2019-01-28T16:40:26.172Z,82.10
2019-01-28T16:42:55.058Z,82.60
2019-01-28T16:45:23.626Z,82.70
2019-01-28T16:47:52.139Z,82.60
2019-01-28T16:50:31.893Z,82.60
2019-01-28T16:53:00.474Z,83.00
2019-01-28T16:55:29.035Z,83.10
2019-01-28T16:57:58.605Z,82.90
2019-01-28T17:00:29.829Z,82.90
2019-01-28T17:02:58.264Z,81.90
2019-01-28T17:05:27.815Z,81.90
2019-01-28T17:07:57.084Z,82.20
2019-01-28T17:10:25.650Z,81.90
2019-01-28T17:12:55.156Z,81.40
2019-01-28T17:15:24.003Z,81.50
2019-01-28T17:17:52.585Z,81.80
2019-01-28T17:20:34.913Z,81.80
2019-01-28T17:22:57.575Z,82.20
2019-01-28T17:25:34.551Z,82.20
2019-01-28T17:28:03.154Z,82.50
2019-01-28T17:30:34.023Z,83.00
2019-01-28T17:33:02.556Z,83.40
2019-01-28T17:35:31.208Z,83.50
2019-01-28T17:37:59.825Z,83.60
2019-01-28T17:40:30.670Z,83.60
2019-01-28T17:42:59.083Z,82.50
2019-01-28T17:45:28.487Z,82.50
2019-01-28T17:47:58.660Z,82.10
2019-01-28T17:50:27.811Z,82.00
2019-01-28T17:52:56.298Z,82.00
2019-01-28T17:55:24.810Z,82.30
2019-01-28T17:57:53.475Z,82.90
2019-01-28T18:00:30.724Z,83.30
2019-01-28T18:02:59.221Z,83.30
2019-01-28T18:05:29.390Z,83.30
2019-01-28T18:07:58.294Z,83.30
2019-01-28T18:10:28.370Z,82.90
2019-01-28T18:12:56.872Z,82.60
2019-01-28T18:15:27.081Z,82.30
2019-01-28T18:17:55.652Z,82.10
2019-01-28T18:20:24.882Z,82.20
2019-01-28T18:22:53.381Z,82.40
2019-01-28T18:25:33.016Z,82.70
2019-01-28T18:28:01.439Z,82.40
2019-01-28T18:30:44.758Z,82.10
2019-01-28T18:33:13.175Z,82.20
2019-01-28T18:35:41.634Z,82.10
2019-01-28T18:38:10.387Z,82.40
2019-01-28T18:40:38.960Z,82.70
2019-01-28T18:43:07.732Z,82.60
2019-01-28T18:45:36.322Z,82.20
2019-01-28T18:48:06.114Z,82.20
2019-01-28T18:50:35.429Z,82.00
2019-01-28T18:53:03.924Z,80.70
2019-01-28T18:55:32.531Z,80.90
2019-01-28T18:58:01.022Z,80.70
2019-01-28T19:00:31.886Z,80.30
2019-01-28T19:03:00.459Z,80.70
2019-01-28T19:05:40.477Z,80.90
2019-01-28T19:08:11.323Z,80.70
2019-01-28T19:10:41.486Z,80.50
2019-01-28T19:13:11.693Z,80.70
2019-01-28T19:15:41.752Z,80.80
2019-01-28T19:18:18.148Z,80.90
2019-01-28T19:21:07.674Z,81.00
2019-01-28T19:23:30.691Z,81.00
2019-01-28T19:25:59.577Z,80.10
2019-01-28T19:28:28.151Z,78.90
2019-01-28T19:30:56.632Z,78.30
2019-01-28T19:33:25.096Z,77.30
2019-01-28T19:35:53.517Z,77.10
2019-01-28T19:38:22.470Z,76.10
2019-01-28T19:40:50.990Z,74.90
2019-01-28T19:43:19.541Z,74.40
2019-01-28T19:45:48.107Z,72.80
2019-01-28T19:48:16.581Z,72.50
2019-01-28T19:50:45.010Z,72.70
2019-01-28T19:53:13.527Z,73.90
2019-01-28T19:55:42.010Z,75.10
2019-01-28T19:58:10.649Z,75.10
2019-01-28T20:00:39.216Z,76.10
2019-01-28T20:03:08.396Z,76.90
2019-01-28T20:05:36.972Z,77.50
2019-01-28T20:08:05.916Z,77.30
2019-01-28T20:10:34.515Z,77.60
2019-01-28T20:13:02.917Z,77.20
2019-01-28T20:15:31.544Z,76.40
2019-01-28T20:18:00.022Z,76.70
2019-01-28T20:20:28.450Z,77.70
2019-01-28T20:22:56.952Z,77.60
2019-01-28T20:25:25.684Z,77.60
2019-01-28T20:27:54.231Z,78.10
2019-01-28T20:30:27.780Z,77.40
2019-01-28T20:32:56.352Z,77.10
2019-01-28T20:35:24.890Z,77.00
2019-01-28T20:37:53.386Z,76.30
2019-01-28T20:40:22.004Z,76.50
2019-01-28T20:42:50.507Z,75.70
2019-01-28T20:45:21.770Z,74.20
2019-01-28T20:47:50.287Z,73.20
2019-01-28T20:50:27.969Z,72.60
2019-01-28T20:52:56.467Z,72.20
2019-01-28T20:55:25.232Z,72.60
2019-01-28T20:57:53.764Z,73.40
2019-01-28T21:00:24.518Z,72.70
2019-01-28T21:02:53.576Z,72.40
2019-01-28T21:05:23.219Z,70.70
2019-01-28T21:07:51.700Z,70.00
2019-01-28T21:10:23.310Z,69.10
2019-01-28T21:12:53.306Z,70.60
2019-01-28T21:15:22.834Z,70.80
2019-01-28T21:17:51.487Z,70.70
2019-01-28T21:20:21.619Z,70.00
2019-01-28T21:22:50.810Z,69.60
2019-01-28T21:25:26.762Z,68.90
2019-01-28T21:27:56.744Z,69.00
2019-01-28T21:30:30.943Z,68.20
2019-01-28T21:32:59.648Z,66.80
2019-01-28T21:35:39.049Z,64.40
2019-01-28T21:38:09.217Z,64.10
2019-01-28T21:40:37.651Z,64.00
2019-01-28T21:43:06.072Z,63.40
2019-01-28T21:45:34.653Z,63.90
2019-01-28T21:48:04.032Z,63.40
2019-01-28T21:50:32.825Z,64.00
2019-01-28T21:53:01.315Z,64.10
2019-01-28T21:55:29.826Z,63.90
2019-01-28T21:57:58.424Z,64.30
2019-01-28T22:00:27.021Z,63.30
2019-01-28T22:02:55.442Z,63.50
2019-01-28T22:05:23.938Z,64.40
2019-01-28T22:07:52.533Z,65.20
2019-01-28T22:10:20.989Z,65.70
2019-01-28T22:12:49.407Z,65.00
2019-01-28T22:15:18.898Z,65.00
2019-01-28T22:17:47.393Z,64.20
2019-01-28T22:20:16.091Z,64.00
2019-01-28T22:22:44.577Z,63.40
2019-01-28T22:25:15.366Z,62.60
2019-01-28T22:27:43.868Z,62.90
2019-01-28T22:30:15.426Z,62.50
2019-01-28T22:32:43.850Z,62.50
2019-01-28T22:35:12.423Z,62.70
